createdAt,value
2022-12-03T00:01:04.668Z,4.15
2022-12-03T00:03:36.092Z,4.14
2022-12-03T00:06:04.383Z,4.11
2022-12-03T00:08:32.395Z,4.09
2022-12-03T00:11:00.406Z,4.07
2022-12-03T00:13:28.507Z,4.04
2022-12-03T00:15:56.443Z,4.01
2022-12-03T00:18:24.518Z,3.96
2022-12-03T00:20:52.700Z,3.94
2022-12-03T00:23:20.687Z,3.90
2022-12-03T00:25:48.942Z,3.88
2022-12-03T00:28:16.988Z,3.85
2022-12-03T00:30:45.068Z,3.84
2022-12-03T00:33:12.854Z,3.82
2022-12-03T00:35:41.788Z,3.82
2022-12-03T00:38:09.756Z,3.81
2022-12-03T00:40:37.641Z,3.80
2022-12-03T00:43:05.801Z,3.79
2022-12-03T00:45:33.843Z,3.78
2022-12-03T00:48:01.993Z,3.76
2022-12-03T00:50:30.077Z,3.73
2022-12-03T00:52:57.915Z,3.71
2022-12-03T00:55:26.173Z,3.71
2022-12-03T00:57:54.339Z,3.70
2022-12-03T01:00:24.919Z,3.69
2022-12-03T01:02:53.463Z,3.68
2022-12-03T01:05:22.430Z,3.66
2022-12-03T01:07:50.292Z,3.65
2022-12-03T01:10:18.394Z,3.63
2022-12-03T01:12:46.123Z,3.61
2022-12-03T01:15:14.334Z,3.60
2022-12-03T01:17:42.545Z,3.58
2022-12-03T01:20:14.879Z,3.58
2022-12-03T01:22:42.967Z,3.57
2022-12-03T01:25:11.489Z,3.57
2022-12-03T01:27:39.893Z,3.55
2022-12-03T01:30:08.738Z,3.53
2022-12-03T01:32:36.613Z,3.51
2022-12-03T01:35:05.172Z,3.49
2022-12-03T01:37:33.417Z,3.47
2022-12-03T01:40:01.543Z,3.45
2022-12-03T01:42:36.151Z,3.44
2022-12-03T01:45:04.689Z,3.42
2022-12-03T01:47:34.916Z,3.41
2022-12-03T01:50:21.497Z,3.39
2022-12-03T01:52:49.702Z,3.39
2022-12-03T01:55:21.940Z,3.38
2022-12-03T01:57:54.604Z,3.37
2022-12-03T02:00:24.795Z,3.37
2022-12-03T02:02:55.771Z,3.37
2022-12-03T02:05:29.910Z,3.37
2022-12-03T02:07:58.469Z,3.39
2022-12-03T02:10:38.587Z,3.39
2022-12-03T02:13:11.350Z,3.40
2022-12-03T02:15:40.530Z,3.40
2022-12-03T02:18:10.646Z,3.40
2022-12-03T02:20:51.134Z,3.40
2022-12-03T02:23:54.475Z,3.40
2022-12-03T02:26:22.472Z,3.43
2022-12-03T02:28:50.683Z,3.44
2022-12-03T02:31:18.559Z,3.46
2022-12-03T02:33:46.380Z,3.48
2022-12-03T02:36:14.156Z,3.49
2022-12-03T02:38:43.583Z,3.50
2022-12-03T02:41:35.194Z,3.52
2022-12-03T02:44:04.436Z,3.54
2022-12-03T02:46:32.432Z,3.54
2022-12-03T02:49:01.196Z,3.56
2022-12-03T02:51:29.088Z,3.56
2022-12-03T02:53:58.049Z,3.58
2022-12-03T02:56:30.478Z,3.59
2022-12-03T02:59:02.541Z,3.60
2022-12-03T03:01:30.620Z,3.61
2022-12-03T03:03:59.192Z,3.62
2022-12-03T03:06:27.232Z,3.62
2022-12-03T03:08:55.246Z,3.63
2022-12-03T03:11:23.585Z,3.64
2022-12-03T03:13:51.821Z,3.65
2022-12-03T03:16:20.069Z,3.66
2022-12-03T03:18:48.573Z,3.67
2022-12-03T03:21:16.910Z,3.68
2022-12-03T03:23:44.944Z,3.68
2022-12-03T03:26:16.553Z,3.67
2022-12-03T03:28:49.179Z,3.66
2022-12-03T03:31:20.319Z,3.65
2022-12-03T03:33:50.219Z,3.64
2022-12-03T03:36:19.673Z,3.63
2022-12-03T03:38:48.295Z,3.63
2022-12-03T03:41:17.104Z,3.65
2022-12-03T03:43:46.312Z,3.67
2022-12-03T03:46:15.971Z,3.68
2022-12-03T03:48:45.295Z,3.71
2022-12-03T03:51:13.946Z,3.73
2022-12-03T03:53:45.097Z,3.74
2022-12-03T03:56:14.402Z,3.75
2022-12-03T03:58:42.500Z,3.75
2022-12-03T04:01:12.183Z,3.75
2022-12-03T04:03:40.533Z,3.74
2022-12-03T04:06:08.888Z,3.74
2022-12-03T04:08:37.075Z,3.77
2022-12-03T04:11:23.294Z,3.79
2022-12-03T04:13:51.336Z,3.81
2022-12-03T04:16:19.758Z,3.81
2022-12-03T04:18:47.824Z,3.83
2022-12-03T04:21:37.479Z,3.86
2022-12-03T04:24:06.581Z,3.86
2022-12-03T04:26:53.376Z,3.87
2022-12-03T04:29:22.269Z,3.85
2022-12-03T04:32:08.901Z,3.84
2022-12-03T04:34:55.435Z,3.81
2022-12-03T04:37:24.212Z,3.81
2022-12-03T04:39:52.185Z,3.80
2022-12-03T04:42:20.244Z,3.76
2022-12-03T04:44:48.024Z,3.74
2022-12-03T04:47:18.096Z,3.72
2022-12-03T04:49:48.332Z,3.69
2022-12-03T04:52:18.864Z,3.68
2022-12-03T04:54:47.513Z,3.64
2022-12-03T04:57:15.314Z,3.58
2022-12-03T04:59:43.108Z,3.52
2022-12-03T05:02:11.223Z,3.48
2022-12-03T05:04:39.169Z,3.45
2022-12-03T05:07:07.154Z,3.41
2022-12-03T05:09:35.363Z,3.38
2022-12-03T05:12:04.075Z,3.34
2022-12-03T05:14:32.353Z,3.31
2022-12-03T05:17:00.265Z,3.28
2022-12-03T05:19:48.584Z,3.26
2022-12-03T05:22:16.427Z,3.23
2022-12-03T05:24:44.189Z,3.21
2022-12-03T05:27:12.032Z,3.17
2022-12-03T05:29:39.946Z,3.14
2022-12-03T05:32:07.908Z,3.09
2022-12-03T05:34:36.236Z,3.05
2022-12-03T05:37:04.490Z,3.02
2022-12-03T05:39:32.587Z,3.00
2022-12-03T05:42:19.159Z,2.94
2022-12-03T05:44:47.319Z,2.91
2022-12-03T05:47:15.068Z,2.87
2022-12-03T05:49:43.256Z,2.85
2022-12-03T05:52:11.383Z,2.82
2022-12-03T05:54:39.215Z,2.78
2022-12-03T05:57:07.266Z,2.75
2022-12-03T05:59:34.956Z,2.73
2022-12-03T06:02:03.225Z,2.71
2022-12-03T06:04:31.639Z,2.68
2022-12-03T06:06:59.603Z,2.65
2022-12-03T06:09:27.558Z,2.64
2022-12-03T06:11:55.581Z,2.64
2022-12-03T06:14:23.697Z,2.65
2022-12-03T06:16:52.073Z,2.62
2022-12-03T06:19:20.149Z,2.60
2022-12-03T06:21:48.169Z,2.59
2022-12-03T06:24:16.117Z,2.58
2022-12-03T06:26:44.183Z,2.56
2022-12-03T06:29:12.677Z,2.55
2022-12-03T06:31:40.422Z,2.54
2022-12-03T06:34:08.620Z,2.53
2022-12-03T06:36:36.357Z,2.50
2022-12-03T06:39:04.595Z,2.49
2022-12-03T06:41:32.856Z,2.50
2022-12-03T06:44:01.274Z,2.48
2022-12-03T06:46:29.368Z,2.46
2022-12-03T06:48:57.277Z,2.46
2022-12-03T06:51:25.241Z,2.45
2022-12-03T06:53:53.478Z,2.44
2022-12-03T06:56:22.440Z,2.43
2022-12-03T06:58:50.486Z,2.44
2022-12-03T07:01:18.758Z,2.44
2022-12-03T07:03:46.982Z,2.43
2022-12-03T07:06:15.023Z,2.43
2022-12-03T07:08:42.992Z,2.42
2022-12-03T07:11:31.456Z,2.40
2022-12-03T07:14:05.104Z,2.39
2022-12-03T07:16:34.654Z,2.39
2022-12-03T07:19:03.008Z,2.38
2022-12-03T07:21:31.064Z,2.36
2022-12-03T07:23:59.158Z,2.35
2022-12-03T07:26:27.525Z,2.36
2022-12-03T07:28:55.295Z,2.34
2022-12-03T07:31:23.618Z,2.34
2022-12-03T07:33:51.562Z,2.35
2022-12-03T07:36:19.569Z,2.37
2022-12-03T07:38:47.676Z,2.38
2022-12-03T07:41:15.831Z,2.35
2022-12-03T07:43:45.483Z,2.35
2022-12-03T07:46:13.658Z,2.34
2022-12-03T07:48:41.714Z,2.34
2022-12-03T07:51:14.208Z,2.34
2022-12-03T07:53:43.470Z,2.34
2022-12-03T07:56:11.523Z,2.35
2022-12-03T07:58:39.369Z,2.36
2022-12-03T08:03:40.451Z,2.37
2022-12-03T08:06:09.279Z,2.34
2022-12-03T08:08:37.926Z,2.31
2022-12-03T08:11:07.073Z,2.29
2022-12-03T08:13:36.280Z,2.28
2022-12-03T08:16:16.885Z,2.28
2022-12-03T08:18:45.970Z,2.29
2022-12-03T08:21:17.643Z,2.28
2022-12-03T08:23:46.686Z,2.31
2022-12-03T08:26:24.771Z,2.31
2022-12-03T08:28:54.414Z,2.33
2022-12-03T08:31:33.418Z,2.32
2022-12-03T08:34:23.995Z,2.32
2022-12-03T08:36:59.374Z,2.32
2022-12-03T08:39:30.780Z,2.31
2022-12-03T08:42:40.484Z,2.30
2022-12-03T08:45:40.782Z,2.30
2022-12-03T08:48:31.593Z,2.32
2022-12-03T08:51:12.048Z,2.33
2022-12-03T08:54:01.152Z,2.33
2022-12-03T08:56:33.993Z,2.33
2022-12-03T08:59:17.313Z,2.33
2022-12-03T09:01:48.495Z,2.34
2022-12-03T09:07:31.218Z,2.37
2022-12-03T09:09:59.929Z,2.38
2022-12-03T09:12:28.686Z,2.37
2022-12-03T09:14:57.331Z,2.36
2022-12-03T09:17:25.765Z,2.35
2022-12-03T09:19:54.299Z,2.37
2022-12-03T09:22:23.241Z,2.36
2022-12-03T09:24:52.363Z,2.34
2022-12-03T09:27:23.515Z,2.35
2022-12-03T09:29:52.626Z,2.36
2022-12-03T09:32:21.556Z,2.36
2022-12-03T09:34:50.251Z,2.36
2022-12-03T09:37:18.839Z,2.36
2022-12-03T09:39:47.405Z,2.34
2022-12-03T09:42:16.484Z,2.33
2022-12-03T09:44:45.847Z,2.31
2022-12-03T09:47:14.451Z,2.30
2022-12-03T09:49:43.593Z,2.30
2022-12-03T09:52:21.369Z,2.27
2022-12-03T09:54:50.077Z,2.28
2022-12-03T09:57:19.339Z,2.26
2022-12-03T09:59:48.143Z,2.26
2022-12-03T10:02:30.645Z,2.26
2022-12-03T10:04:59.671Z,2.27
2022-12-03T10:07:28.307Z,2.27
2022-12-03T10:09:57.383Z,2.27
2022-12-03T10:15:20.613Z,2.26
2022-12-03T10:17:51.325Z,2.26
2022-12-03T10:20:22.402Z,2.28
2022-12-03T10:22:51.740Z,2.27
2022-12-03T10:25:23.650Z,2.27
2022-12-03T10:28:04.483Z,2.26
2022-12-03T10:30:33.013Z,2.26
2022-12-03T10:33:18.880Z,2.25
2022-12-03T10:35:48.108Z,2.25
2022-12-03T10:38:20.485Z,2.26
2022-12-03T10:40:49.276Z,2.28
2022-12-03T10:43:20.961Z,2.30
2022-12-03T10:46:14.429Z,2.31
2022-12-03T10:48:43.322Z,2.28
2022-12-03T10:51:22.197Z,2.27
2022-12-03T10:53:52.367Z,2.26
2022-12-03T10:56:27.896Z,2.25
2022-12-03T10:58:57.117Z,2.23
2022-12-03T11:01:28.142Z,2.23
2022-12-03T11:04:03.357Z,2.22
2022-12-03T11:06:36.110Z,2.22
2022-12-03T11:09:09.129Z,2.22
2022-12-03T11:11:38.032Z,2.24
2022-12-03T11:14:07.063Z,2.23
2022-12-03T11:16:41.783Z,2.21
2022-12-03T11:19:19.442Z,2.23
2022-12-03T11:22:06.059Z,2.23
2022-12-03T11:24:40.481Z,2.23
2022-12-03T11:27:11.921Z,2.25
2022-12-03T11:29:49.701Z,2.28
2022-12-03T11:32:39.860Z,2.30
2022-12-03T11:35:38.822Z,2.32
2022-12-03T11:38:42.615Z,2.32
2022-12-03T11:41:29.090Z,2.35
2022-12-03T11:43:59.969Z,2.35
2022-12-03T11:46:38.144Z,2.35
2022-12-03T11:49:23.158Z,2.35
2022-12-03T11:51:52.264Z,2.37
2022-12-03T11:54:24.549Z,2.39
2022-12-03T11:56:55.486Z,2.40
2022-12-03T11:59:24.632Z,2.41
2022-12-03T12:01:53.415Z,2.41
2022-12-03T12:04:32.116Z,2.42
2022-12-03T12:07:00.986Z,2.41
2022-12-03T12:10:05.520Z,2.39
2022-12-03T12:12:44.410Z,2.39
2022-12-03T12:15:44.544Z,2.41
2022-12-03T12:18:39.562Z,2.41
2022-12-03T12:21:45.184Z,2.40
2022-12-03T12:24:36.786Z,2.40
2022-12-03T12:27:10.777Z,2.41
2022-12-03T12:29:40.669Z,2.42
2022-12-03T12:32:16.242Z,2.42
2022-12-03T12:34:48.574Z,2.43
2022-12-03T12:38:03.688Z,2.43
2022-12-03T12:40:35.009Z,2.44
2022-12-03T12:43:25.800Z,2.46
2022-12-03T12:45:56.593Z,2.48
2022-12-03T12:48:35.387Z,2.49
2022-12-03T12:51:11.201Z,2.50
2022-12-03T12:53:43.622Z,2.49
2022-12-03T12:56:31.143Z,2.50
2022-12-03T12:59:15.910Z,2.51
2022-12-03T13:01:46.464Z,2.52
2022-12-03T13:04:17.603Z,2.52
2022-12-03T13:06:51.596Z,2.53
2022-12-03T13:09:27.734Z,2.52
2022-12-03T13:12:02.287Z,2.52
2022-12-03T13:14:38.232Z,2.54
2022-12-03T13:17:16.584Z,2.54
2022-12-03T13:20:01.932Z,2.56
2022-12-03T13:22:33.832Z,2.57
2022-12-03T13:25:50.580Z,2.57
2022-12-03T13:28:15.363Z,2.57
2022-12-03T13:30:44.305Z,2.56
2022-12-03T13:33:30.483Z,2.55
2022-12-03T13:35:59.117Z,2.55
2022-12-03T13:38:29.450Z,2.56
2022-12-03T13:41:03.446Z,2.56
2022-12-03T13:43:41.277Z,2.57
2022-12-03T13:46:12.245Z,2.57
2022-12-03T13:48:44.150Z,2.58
2022-12-03T13:51:26.323Z,2.57
2022-12-03T13:53:55.741Z,2.57
2022-12-03T13:56:32.690Z,2.57
2022-12-03T13:59:02.838Z,2.58
2022-12-03T14:01:31.901Z,2.60
2022-12-03T14:04:00.884Z,2.60
2022-12-03T14:06:29.588Z,2.59
2022-12-03T14:08:58.302Z,2.60
2022-12-03T14:11:45.737Z,2.62
2022-12-03T14:14:14.478Z,2.62
2022-12-03T14:16:43.024Z,2.63
2022-12-03T14:19:11.576Z,2.63
2022-12-03T14:21:40.565Z,2.64
2022-12-03T14:24:09.295Z,2.64
2022-12-03T14:26:37.995Z,2.65
2022-12-03T14:29:08.910Z,2.66
2022-12-03T14:31:37.732Z,2.66
2022-12-03T14:34:06.635Z,2.67
2022-12-03T14:36:35.514Z,2.69
2022-12-03T14:39:04.282Z,2.70
2022-12-03T14:41:52.105Z,2.71
2022-12-03T14:44:23.056Z,2.71
2022-12-03T14:46:57.245Z,2.71
2022-12-03T14:49:26.505Z,2.72
2022-12-03T14:51:55.273Z,2.72
2022-12-03T14:54:24.085Z,2.72
2022-12-03T14:56:53.112Z,2.72
2022-12-03T14:59:27.181Z,2.73
2022-12-03T15:01:56.649Z,2.73
2022-12-03T15:04:25.569Z,2.73
2022-12-03T15:06:54.526Z,2.73
2022-12-03T15:09:23.240Z,2.72
2022-12-03T15:11:52.193Z,2.71
2022-12-03T15:14:20.771Z,2.71
2022-12-03T15:16:49.424Z,2.71
2022-12-03T15:19:18.133Z,2.73
2022-12-03T15:21:46.603Z,2.74
2022-12-03T15:24:15.180Z,2.76
2022-12-03T15:26:43.672Z,2.79
2022-12-03T15:29:12.162Z,2.81
2022-12-03T15:31:40.920Z,2.80
2022-12-03T15:34:09.774Z,2.77
2022-12-03T15:36:38.492Z,2.74
2022-12-03T15:39:07.320Z,2.70
2022-12-03T15:41:35.862Z,2.65
2022-12-03T15:44:04.280Z,2.62
2022-12-03T15:46:33.079Z,2.60
2022-12-03T15:49:01.716Z,2.59
2022-12-03T15:51:30.158Z,2.57
2022-12-03T15:53:58.834Z,2.55
2022-12-03T15:56:27.533Z,2.54
2022-12-03T15:58:56.170Z,2.51
2022-12-03T16:01:24.837Z,2.49
2022-12-03T16:03:53.353Z,2.47
2022-12-03T16:06:22.067Z,2.44
2022-12-03T16:08:50.614Z,2.42
2022-12-03T16:11:19.285Z,2.38
2022-12-03T16:13:47.999Z,2.37
2022-12-03T16:16:16.685Z,2.37
2022-12-03T16:18:45.754Z,2.36
2022-12-03T16:21:14.400Z,2.35
2022-12-03T16:23:43.029Z,2.32
2022-12-03T16:26:11.799Z,2.30
2022-12-03T16:28:40.599Z,2.30
2022-12-03T16:31:09.147Z,2.30
2022-12-03T16:33:37.969Z,2.29
2022-12-03T16:36:06.638Z,2.26
2022-12-03T16:38:35.221Z,2.25
2022-12-03T16:41:04.090Z,2.28
2022-12-03T16:43:35.367Z,2.32
2022-12-03T16:46:21.488Z,2.34
2022-12-03T16:48:50.956Z,2.37
2022-12-03T16:51:20.691Z,2.40
2022-12-03T16:53:50.561Z,2.43
2022-12-03T16:56:19.854Z,2.46
2022-12-03T16:58:48.971Z,2.47
2022-12-03T17:01:18.019Z,2.50
2022-12-03T17:03:46.796Z,2.51
2022-12-03T17:06:15.501Z,2.53
2022-12-03T17:08:49.071Z,2.55
2022-12-03T17:11:18.727Z,2.55
2022-12-03T17:13:47.355Z,2.57
2022-12-03T17:16:16.040Z,2.59
2022-12-03T17:18:44.907Z,2.61
2022-12-03T17:21:13.436Z,2.64
2022-12-03T17:23:42.320Z,2.68
2022-12-03T17:26:10.877Z,2.73
2022-12-03T17:28:39.611Z,2.76
2022-12-03T17:31:08.326Z,2.79
2022-12-03T17:33:37.307Z,2.81
2022-12-03T17:36:06.149Z,2.83
2022-12-03T17:38:39.106Z,2.86
2022-12-03T17:41:08.632Z,2.88
2022-12-03T17:43:37.489Z,2.91
2022-12-03T17:46:07.531Z,2.93
2022-12-03T17:48:37.045Z,2.93
2022-12-03T17:51:05.904Z,2.94
2022-12-03T17:53:34.355Z,2.96
2022-12-03T17:56:03.285Z,2.98
2022-12-03T17:58:32.034Z,2.99
2022-12-03T18:01:03.101Z,2.99
2022-12-03T18:03:32.172Z,3.02
2022-12-03T18:06:00.718Z,3.05
2022-12-03T18:08:29.421Z,3.06
2022-12-03T18:10:58.168Z,3.08
2022-12-03T18:13:27.194Z,3.09
2022-12-03T18:15:55.942Z,3.11
2022-12-03T18:18:28.928Z,3.12
2022-12-03T18:21:02.117Z,3.12
2022-12-03T18:23:30.855Z,3.14
2022-12-03T18:26:02.668Z,3.16
2022-12-03T18:28:34.179Z,3.16
2022-12-03T18:31:03.094Z,3.18
2022-12-03T18:33:31.745Z,3.20
2022-12-03T18:36:00.350Z,3.22
2022-12-03T18:38:32.142Z,3.26
2022-12-03T18:41:01.473Z,3.30
2022-12-03T18:43:36.856Z,3.36
2022-12-03T18:46:31.145Z,3.38
2022-12-03T18:49:00.193Z,3.43
2022-12-03T18:51:30.012Z,3.45
2022-12-03T18:53:58.564Z,3.48
2022-12-03T18:56:27.315Z,3.52
2022-12-03T18:58:56.084Z,3.55
2022-12-03T19:01:28.654Z,3.60
2022-12-03T19:03:57.250Z,3.65
2022-12-03T19:06:25.933Z,3.71
2022-12-03T19:08:55.447Z,3.77
2022-12-03T19:11:24.153Z,3.83
2022-12-03T19:13:53.065Z,3.88
2022-12-03T19:16:21.840Z,3.93
2022-12-03T19:18:50.571Z,3.98
2022-12-03T19:21:19.010Z,4.03
2022-12-03T19:24:22.066Z,4.08
2022-12-03T19:26:36.430Z,4.13
2022-12-03T19:29:05.571Z,4.18
2022-12-03T19:31:34.575Z,4.22
2022-12-03T19:34:03.394Z,4.26
2022-12-03T19:36:36.367Z,4.31
2022-12-03T19:39:04.976Z,4.36
2022-12-03T19:41:33.677Z,4.41
2022-12-03T19:44:06.317Z,4.44
2022-12-03T19:46:37.862Z,4.48
2022-12-03T19:49:07.180Z,4.54
2022-12-03T19:51:36.094Z,4.58
2022-12-03T19:54:06.450Z,4.62
2022-12-03T19:56:35.523Z,4.67
2022-12-03T19:59:04.657Z,4.71
2022-12-03T20:01:36.148Z,4.76
2022-12-03T20:04:05.518Z,4.81
2022-12-03T20:06:36.984Z,4.86
2022-12-03T20:09:13.923Z,4.93
2022-12-03T20:11:43.570Z,5.00
2022-12-03T20:14:17.714Z,5.06
2022-12-03T20:16:46.462Z,5.14
2022-12-03T20:19:17.465Z,5.22
2022-12-03T20:21:46.044Z,5.28
2022-12-03T20:24:17.230Z,5.34
2022-12-03T20:26:45.783Z,5.38
2022-12-03T20:29:14.502Z,5.42
2022-12-03T20:31:43.119Z,5.45
2022-12-03T20:34:12.153Z,5.48
2022-12-03T20:36:41.096Z,5.50
2022-12-03T20:39:10.050Z,5.51
2022-12-03T20:41:39.360Z,5.54
2022-12-03T20:44:09.197Z,5.58
2022-12-03T20:46:37.975Z,5.61
2022-12-03T20:49:06.626Z,5.64
2022-12-03T20:51:35.276Z,5.67
2022-12-03T20:54:04.071Z,5.69
2022-12-03T20:56:35.928Z,5.71
2022-12-03T20:59:15.320Z,5.72
2022-12-03T21:01:45.067Z,5.74
2022-12-03T21:04:18.944Z,5.76
2022-12-03T21:06:47.773Z,5.78
2022-12-03T21:09:17.888Z,5.81
2022-12-03T21:11:46.792Z,5.83
2022-12-03T21:14:15.534Z,5.85
2022-12-03T21:17:07.937Z,5.87
2022-12-03T21:19:37.786Z,5.89
2022-12-03T21:22:07.228Z,5.93
2022-12-03T21:24:36.193Z,5.97
2022-12-03T21:27:04.821Z,5.99
2022-12-03T21:29:33.358Z,6.01
2022-12-03T21:32:02.155Z,6.03
2022-12-03T21:34:36.187Z,6.05
2022-12-03T21:37:05.220Z,6.08
2022-12-03T21:39:33.933Z,6.10
2022-12-03T21:42:19.409Z,6.13
2022-12-03T21:44:51.244Z,6.14
2022-12-03T21:47:19.889Z,6.17
2022-12-03T21:49:48.616Z,6.18
2022-12-03T21:52:17.164Z,6.20
2022-12-03T21:54:45.745Z,6.21
2022-12-03T21:57:14.369Z,6.23
2022-12-03T21:59:43.057Z,6.25
2022-12-03T22:02:12.494Z,6.27
2022-12-03T22:04:41.153Z,6.28
2022-12-03T22:07:10.190Z,6.29
2022-12-03T22:09:38.975Z,6.31
2022-12-03T22:12:07.764Z,6.32
2022-12-03T22:14:36.243Z,6.34
2022-12-03T22:17:05.057Z,6.35
2022-12-03T22:19:33.949Z,6.35
2022-12-03T22:22:02.687Z,6.34
2022-12-03T22:24:31.526Z,6.31
2022-12-03T22:27:00.126Z,6.29
2022-12-03T22:29:29.143Z,6.28
2022-12-03T22:31:57.775Z,6.27
2022-12-03T22:34:26.390Z,6.24
2022-12-03T22:36:54.904Z,6.21
2022-12-03T22:39:23.983Z,6.18
2022-12-03T22:41:52.584Z,6.16
2022-12-03T22:44:21.784Z,6.16
2022-12-03T22:46:50.392Z,6.15
2022-12-03T22:49:19.144Z,6.12
2022-12-03T22:51:48.157Z,6.09
2022-12-03T22:54:20.881Z,6.06
2022-12-03T22:56:52.716Z,6.02
2022-12-03T22:59:21.299Z,5.98
2022-12-03T23:01:55.744Z,5.93
2022-12-03T23:04:24.828Z,5.91
2022-12-03T23:06:53.611Z,5.91
2022-12-03T23:09:22.337Z,5.88
2022-12-03T23:11:51.040Z,5.86
2022-12-03T23:14:19.833Z,5.84
2022-12-03T23:16:48.352Z,5.82
2022-12-03T23:19:17.388Z,5.81
2022-12-03T23:21:46.106Z,5.81
2022-12-03T23:24:14.932Z,5.78
2022-12-03T23:26:43.875Z,5.75
2022-12-03T23:29:12.351Z,5.72
2022-12-03T23:31:41.169Z,5.68
2022-12-03T23:34:09.995Z,5.66
2022-12-03T23:36:38.563Z,5.63
2022-12-03T23:39:07.080Z,5.60
2022-12-03T23:41:35.830Z,5.57
2022-12-03T23:44:04.526Z,5.54
2022-12-03T23:46:33.383Z,5.52
2022-12-03T23:49:02.284Z,5.49
2022-12-03T23:51:30.972Z,5.46
2022-12-03T23:53:59.582Z,5.42
2022-12-03T23:56:31.477Z,5.36
2022-12-03T23:59:00.147Z,5.30
